sensor_id;sensor_type;location;lat;lon;timestamp;temperature;humidity
67141;DHT22;54058;52.010;5.546;2022-12-22T00:01:17;10.00;93.70
67141;DHT22;54058;52.010;5.546;2022-12-22T00:04:01;10.00;93.70
67141;DHT22;54058;52.010;5.546;2022-12-22T00:06:45;10.00;93.70
67141;DHT22;54058;52.010;5.546;2022-12-22T00:09:29;10.00;93.70
67141;DHT22;54058;52.010;5.546;2022-12-22T00:12:14;10.00;93.70
67141;DHT22;54058;52.010;5.546;2022-12-22T00:15:00;10.00;93.70
67141;DHT22;54058;52.010;5.546;2022-12-22T00:17:44;10.00;93.70
67141;DHT22;54058;52.010;5.546;2022-12-22T00:20:28;10.00;93.70
67141;DHT22;54058;52.010;5.546;2022-12-22T00:23:12;10.00;93.70
67141;DHT22;54058;52.010;5.546;2022-12-22T00:25:57;10.00;93.70
67141;DHT22;54058;52.010;5.546;2022-12-22T00:28:42;10.00;93.70
67141;DHT22;54058;52.010;5.546;2022-12-22T00:31:28;10.00;93.70
67141;DHT22;54058;52.010;5.546;2022-12-22T00:34:20;10.00;93.70
67141;DHT22;54058;52.010;5.546;2022-12-22T00:37:10;10.00;93.70
67141;DHT22;54058;52.010;5.546;2022-12-22T00:39:55;10.10;93.70
67141;DHT22;54058;52.010;5.546;2022-12-22T00:42:39;10.10;93.70
67141;DHT22;54058;52.010;5.546;2022-12-22T00:45:23;10.10;93.70
67141;DHT22;54058;52.010;5.546;2022-12-22T00:48:18;10.10;93.70
67141;DHT22;54058;52.010;5.546;2022-12-22T00:51:04;10.10;93.70
67141;DHT22;54058;52.010;5.546;2022-12-22T00:53:48;10.10;93.70
67141;DHT22;54058;52.010;5.546;2022-12-22T00:56:33;10.10;93.70
67141;DHT22;54058;52.010;5.546;2022-12-22T00:59:17;10.10;93.70
67141;DHT22;54058;52.010;5.546;2022-12-22T01:02:00;10.20;93.70
67141;DHT22;54058;52.010;5.546;2022-12-22T01:04:45;10.10;93.70
67141;DHT22;54058;52.010;5.546;2022-12-22T01:07:29;10.10;93.70
67141;DHT22;54058;52.010;5.546;2022-12-22T01:10:13;10.10;93.80
67141;DHT22;54058;52.010;5.546;2022-12-22T01:12:58;10.10;93.80
67141;DHT22;54058;52.010;5.546;2022-12-22T01:15:43;10.10;93.80
67141;DHT22;54058;52.010;5.546;2022-12-22T01:18:27;10.10;93.80
67141;DHT22;54058;52.010;5.546;2022-12-22T01:21:11;10.20;93.80
67141;DHT22;54058;52.010;5.546;2022-12-22T01:23:56;10.10;93.80
67141;DHT22;54058;52.010;5.546;2022-12-22T01:26:40;10.10;93.80
67141;DHT22;54058;52.010;5.546;2022-12-22T01:29:24;10.10;93.80
67141;DHT22;54058;52.010;5.546;2022-12-22T01:32:13;10.10;93.80
67141;DHT22;54058;52.010;5.546;2022-12-22T01:34:58;10.10;93.80
67141;DHT22;54058;52.010;5.546;2022-12-22T01:37:42;10.10;93.70
67141;DHT22;54058;52.010;5.546;2022-12-22T01:40:26;10.10;93.70
67141;DHT22;54058;52.010;5.546;2022-12-22T01:43:26;10.10;93.70
67141;DHT22;54058;52.010;5.546;2022-12-22T01:46:43;10.10;93.70
67141;DHT22;54058;52.010;5.546;2022-12-22T01:52:18;10.10;93.70
67141;DHT22;54058;52.010;5.546;2022-12-22T01:55:08;10.10;93.80
67141;DHT22;54058;52.010;5.546;2022-12-22T01:57:55;10.10;93.80
67141;DHT22;54058;52.010;5.546;2022-12-22T02:00:40;10.10;93.80
67141;DHT22;54058;52.010;5.546;2022-12-22T02:03:24;10.10;94.10
67141;DHT22;54058;52.010;5.546;2022-12-22T02:12:36;10.20;93.80
67141;DHT22;54058;52.010;5.546;2022-12-22T02:15:31;10.20;93.80
67141;DHT22;54058;52.010;5.546;2022-12-22T02:18:26;10.20;93.80
67141;DHT22;54058;52.010;5.546;2022-12-22T02:21:15;10.20;93.80
67141;DHT22;54058;52.010;5.546;2022-12-22T02:24:35;10.20;93.80
67141;DHT22;54058;52.010;5.546;2022-12-22T02:27:12;10.20;93.90
67141;DHT22;54058;52.010;5.546;2022-12-22T02:30:05;10.20;93.90
67141;DHT22;54058;52.010;5.546;2022-12-22T02:32:50;10.20;93.80
67141;DHT22;54058;52.010;5.546;2022-12-22T02:46:59;10.30;93.90
67141;DHT22;54058;52.010;5.546;2022-12-22T02:49:54;10.20;93.80
67141;DHT22;54058;52.010;5.546;2022-12-22T02:52:41;10.20;93.80
67141;DHT22;54058;52.010;5.546;2022-12-22T02:55:27;10.20;93.90
67141;DHT22;54058;52.010;5.546;2022-12-22T02:58:12;10.20;93.90
67141;DHT22;54058;52.010;5.546;2022-12-22T03:00:57;10.20;93.90
67141;DHT22;54058;52.010;5.546;2022-12-22T03:03:41;10.30;93.90
67141;DHT22;54058;52.010;5.546;2022-12-22T03:06:25;10.30;93.90
67141;DHT22;54058;52.010;5.546;2022-12-22T03:09:09;10.20;93.90
67141;DHT22;54058;52.010;5.546;2022-12-22T03:11:53;10.30;94.10
67141;DHT22;54058;52.010;5.546;2022-12-22T03:14:37;10.30;93.90
67141;DHT22;54058;52.010;5.546;2022-12-22T03:17:21;10.30;93.90
67141;DHT22;54058;52.010;5.546;2022-12-22T03:20:06;10.30;93.80
67141;DHT22;54058;52.010;5.546;2022-12-22T03:22:50;10.30;93.80
67141;DHT22;54058;52.010;5.546;2022-12-22T03:25:34;10.30;93.90
67141;DHT22;54058;52.010;5.546;2022-12-22T03:28:17;10.40;93.90
67141;DHT22;54058;52.010;5.546;2022-12-22T03:30:43;10.30;93.90
67141;DHT22;54058;52.010;5.546;2022-12-22T03:33:08;10.30;93.90
67141;DHT22;54058;52.010;5.546;2022-12-22T03:35:34;10.40;93.90
67141;DHT22;54058;52.010;5.546;2022-12-22T03:38:00;10.40;94.00
67141;DHT22;54058;52.010;5.546;2022-12-22T03:40:32;10.40;94.00
67141;DHT22;54058;52.010;5.546;2022-12-22T03:42:57;10.30;94.00
67141;DHT22;54058;52.010;5.546;2022-12-22T03:45:41;10.40;94.00
67141;DHT22;54058;52.010;5.546;2022-12-22T03:48:25;10.40;94.00
67141;DHT22;54058;52.010;5.546;2022-12-22T03:50:51;10.40;94.00
67141;DHT22;54058;52.010;5.546;2022-12-22T03:53:17;10.40;94.00
67141;DHT22;54058;52.010;5.546;2022-12-22T03:55:42;10.40;94.00
67141;DHT22;54058;52.010;5.546;2022-12-22T03:58:08;10.40;94.00
67141;DHT22;54058;52.010;5.546;2022-12-22T04:00:33;10.40;94.00
67141;DHT22;54058;52.010;5.546;2022-12-22T04:02:59;10.40;94.00
67141;DHT22;54058;52.010;5.546;2022-12-22T04:05:25;10.40;94.10
67141;DHT22;54058;52.010;5.546;2022-12-22T04:07:51;10.40;94.00
67141;DHT22;54058;52.010;5.546;2022-12-22T04:10:17;10.40;94.00
67141;DHT22;54058;52.010;5.546;2022-12-22T04:13:01;10.40;94.10
67141;DHT22;54058;52.010;5.546;2022-12-22T04:15:29;10.40;94.10
67141;DHT22;54058;52.010;5.546;2022-12-22T04:17:55;10.40;94.10
67141;DHT22;54058;52.010;5.546;2022-12-22T04:20:22;10.40;94.10
67141;DHT22;54058;52.010;5.546;2022-12-22T04:22:48;10.40;94.10
67141;DHT22;54058;52.010;5.546;2022-12-22T04:25:14;10.40;94.10
67141;DHT22;54058;52.010;5.546;2022-12-22T04:27:40;10.40;94.10
67141;DHT22;54058;52.010;5.546;2022-12-22T04:30:07;10.40;94.10
67141;DHT22;54058;52.010;5.546;2022-12-22T04:32:33;10.40;94.10
67141;DHT22;54058;52.010;5.546;2022-12-22T04:34:59;10.40;94.10
67141;DHT22;54058;52.010;5.546;2022-12-22T04:37:25;10.40;94.10
67141;DHT22;54058;52.010;5.546;2022-12-22T04:39:50;10.40;94.10
67141;DHT22;54058;52.010;5.546;2022-12-22T04:42:16;10.40;94.10
67141;DHT22;54058;52.010;5.546;2022-12-22T04:44:42;10.40;94.10
67141;DHT22;54058;52.010;5.546;2022-12-22T04:47:07;10.40;94.10
67141;DHT22;54058;52.010;5.546;2022-12-22T04:49:33;10.40;94.10
67141;DHT22;54058;52.010;5.546;2022-12-22T04:51:58;10.40;94.10
67141;DHT22;54058;52.010;5.546;2022-12-22T04:54:24;10.40;94.10
67141;DHT22;54058;52.010;5.546;2022-12-22T04:56:50;10.40;94.10
67141;DHT22;54058;52.010;5.546;2022-12-22T04:59:15;10.40;94.10
67141;DHT22;54058;52.010;5.546;2022-12-22T05:01:41;10.40;94.10
67141;DHT22;54058;52.010;5.546;2022-12-22T05:04:07;10.40;94.10
67141;DHT22;54058;52.010;5.546;2022-12-22T05:06:32;10.40;94.10
67141;DHT22;54058;52.010;5.546;2022-12-22T05:08:58;10.30;94.10
67141;DHT22;54058;52.010;5.546;2022-12-22T05:11:24;10.40;94.10
67141;DHT22;54058;52.010;5.546;2022-12-22T05:13:49;10.40;94.10
67141;DHT22;54058;52.010;5.546;2022-12-22T05:16:15;10.40;94.10
67141;DHT22;54058;52.010;5.546;2022-12-22T05:18:43;10.40;94.10
67141;DHT22;54058;52.010;5.546;2022-12-22T05:21:11;10.40;94.10
67141;DHT22;54058;52.010;5.546;2022-12-22T05:23:38;10.30;94.10
67141;DHT22;54058;52.010;5.546;2022-12-22T05:26:04;10.30;94.10
67141;DHT22;54058;52.010;5.546;2022-12-22T05:28:30;10.30;94.10
67141;DHT22;54058;52.010;5.546;2022-12-22T05:30:56;10.30;94.10
67141;DHT22;54058;52.010;5.546;2022-12-22T05:33:26;10.30;94.10
67141;DHT22;54058;52.010;5.546;2022-12-22T05:35:52;10.30;94.10
67141;DHT22;54058;52.010;5.546;2022-12-22T05:38:17;10.30;94.10
67141;DHT22;54058;52.010;5.546;2022-12-22T05:40:43;10.30;94.10
67141;DHT22;54058;52.010;5.546;2022-12-22T05:43:09;10.30;94.20
67141;DHT22;54058;52.010;5.546;2022-12-22T05:45:34;10.30;94.20
67141;DHT22;54058;52.010;5.546;2022-12-22T05:48:00;10.30;94.20
67141;DHT22;54058;52.010;5.546;2022-12-22T05:50:25;10.30;94.40
67141;DHT22;54058;52.010;5.546;2022-12-22T05:52:52;10.20;94.20
67141;DHT22;54058;52.010;5.546;2022-12-22T05:55:18;10.30;94.20
67141;DHT22;54058;52.010;5.546;2022-12-22T05:57:44;10.30;94.30
67141;DHT22;54058;52.010;5.546;2022-12-22T06:00:12;10.20;94.20
67141;DHT22;54058;52.010;5.546;2022-12-22T06:02:39;10.20;94.30
67141;DHT22;54058;52.010;5.546;2022-12-22T06:05:05;10.20;94.30
67141;DHT22;54058;52.010;5.546;2022-12-22T06:07:31;10.20;94.30
67141;DHT22;54058;52.010;5.546;2022-12-22T06:09:56;10.20;94.30
67141;DHT22;54058;52.010;5.546;2022-12-22T06:12:22;10.20;94.40
67141;DHT22;54058;52.010;5.546;2022-12-22T06:14:48;10.20;94.30
67141;DHT22;54058;52.010;5.546;2022-12-22T06:17:13;10.20;94.30
67141;DHT22;54058;52.010;5.546;2022-12-22T06:19:39;10.20;94.40
67141;DHT22;54058;52.010;5.546;2022-12-22T06:22:05;10.20;94.30
67141;DHT22;54058;52.010;5.546;2022-12-22T06:24:30;10.20;94.30
67141;DHT22;54058;52.010;5.546;2022-12-22T06:26:56;10.20;94.30
67141;DHT22;54058;52.010;5.546;2022-12-22T06:29:22;10.20;94.30
67141;DHT22;54058;52.010;5.546;2022-12-22T06:31:48;10.20;94.30
67141;DHT22;54058;52.010;5.546;2022-12-22T06:34:13;10.20;94.30
67141;DHT22;54058;52.010;5.546;2022-12-22T06:36:45;10.20;94.30
67141;DHT22;54058;52.010;5.546;2022-12-22T06:39:12;10.20;94.30
67141;DHT22;54058;52.010;5.546;2022-12-22T06:41:38;10.20;94.30
67141;DHT22;54058;52.010;5.546;2022-12-22T06:44:23;10.20;94.30
67141;DHT22;54058;52.010;5.546;2022-12-22T06:46:48;10.20;94.20
67141;DHT22;54058;52.010;5.546;2022-12-22T06:49:14;10.20;94.10
67141;DHT22;54058;52.010;5.546;2022-12-22T06:51:40;10.10;94.00
67141;DHT22;54058;52.010;5.546;2022-12-22T06:54:06;10.10;94.00
67141;DHT22;54058;52.010;5.546;2022-12-22T06:56:31;10.00;93.90
67141;DHT22;54058;52.010;5.546;2022-12-22T06:58:57;10.00;93.90
67141;DHT22;54058;52.010;5.546;2022-12-22T07:01:22;9.90;93.90
67141;DHT22;54058;52.010;5.546;2022-12-22T07:03:49;9.90;93.90
67141;DHT22;54058;52.010;5.546;2022-12-22T07:06:14;9.80;93.90
67141;DHT22;54058;52.010;5.546;2022-12-22T07:08:43;9.80;93.90
67141;DHT22;54058;52.010;5.546;2022-12-22T07:11:09;9.80;94.00
67141;DHT22;54058;52.010;5.546;2022-12-22T07:13:34;9.80;94.00
67141;DHT22;54058;52.010;5.546;2022-12-22T07:16:02;9.80;94.10
67141;DHT22;54058;52.010;5.546;2022-12-22T07:18:35;9.80;94.20
67141;DHT22;54058;52.010;5.546;2022-12-22T07:21:07;9.80;94.20
67141;DHT22;54058;52.010;5.546;2022-12-22T07:23:33;9.80;94.20
67141;DHT22;54058;52.010;5.546;2022-12-22T07:26:00;9.80;94.30
67141;DHT22;54058;52.010;5.546;2022-12-22T07:28:25;9.80;94.30
67141;DHT22;54058;52.010;5.546;2022-12-22T07:30:52;9.80;94.30
67141;DHT22;54058;52.010;5.546;2022-12-22T07:33:18;9.80;94.30
67141;DHT22;54058;52.010;5.546;2022-12-22T07:35:44;9.80;94.30
67141;DHT22;54058;52.010;5.546;2022-12-22T07:38:10;9.80;94.30
67141;DHT22;54058;52.010;5.546;2022-12-22T07:40:36;9.80;94.30
67141;DHT22;54058;52.010;5.546;2022-12-22T07:43:02;9.80;94.20
67141;DHT22;54058;52.010;5.546;2022-12-22T07:45:28;9.80;94.20
67141;DHT22;54058;52.010;5.546;2022-12-22T07:48:00;9.80;94.20
67141;DHT22;54058;52.010;5.546;2022-12-22T07:50:26;9.80;94.20
67141;DHT22;54058;52.010;5.546;2022-12-22T07:53:03;9.80;94.30
67141;DHT22;54058;52.010;5.546;2022-12-22T07:55:33;9.80;94.20
67141;DHT22;54058;52.010;5.546;2022-12-22T07:58:00;9.90;94.20
67141;DHT22;54058;52.010;5.546;2022-12-22T08:00:25;9.80;94.10
67141;DHT22;54058;52.010;5.546;2022-12-22T08:02:53;9.80;94.10
67141;DHT22;54058;52.010;5.546;2022-12-22T08:05:19;9.80;94.10
67141;DHT22;54058;52.010;5.546;2022-12-22T08:07:46;9.80;94.10
67141;DHT22;54058;52.010;5.546;2022-12-22T08:10:12;9.80;94.20
67141;DHT22;54058;52.010;5.546;2022-12-22T08:12:38;9.90;94.40
67141;DHT22;54058;52.010;5.546;2022-12-22T08:15:05;9.90;94.10
67141;DHT22;54058;52.010;5.546;2022-12-22T08:17:30;9.90;94.10
67141;DHT22;54058;52.010;5.546;2022-12-22T08:19:56;9.90;94.00
67141;DHT22;54058;52.010;5.546;2022-12-22T08:22:22;9.90;94.00
67141;DHT22;54058;52.010;5.546;2022-12-22T08:24:52;9.90;94.00
67141;DHT22;54058;52.010;5.546;2022-12-22T08:27:23;9.90;94.00
67141;DHT22;54058;52.010;5.546;2022-12-22T08:29:54;9.90;94.00
67141;DHT22;54058;52.010;5.546;2022-12-22T08:32:21;9.90;94.00
67141;DHT22;54058;52.010;5.546;2022-12-22T08:34:49;9.90;94.00
67141;DHT22;54058;52.010;5.546;2022-12-22T08:37:17;9.90;93.90
67141;DHT22;54058;52.010;5.546;2022-12-22T08:39:49;9.90;94.00
67141;DHT22;54058;52.010;5.546;2022-12-22T08:42:17;9.90;94.00
67141;DHT22;54058;52.010;5.546;2022-12-22T08:44:44;9.90;94.00
67141;DHT22;54058;52.010;5.546;2022-12-22T08:47:11;9.90;94.00
67141;DHT22;54058;52.010;5.546;2022-12-22T08:49:37;9.80;93.90
67141;DHT22;54058;52.010;5.546;2022-12-22T08:52:03;9.90;94.00
67141;DHT22;54058;52.010;5.546;2022-12-22T08:54:28;9.80;94.00
67141;DHT22;54058;52.010;5.546;2022-12-22T08:56:55;9.80;94.00
67141;DHT22;54058;52.010;5.546;2022-12-22T08:59:20;9.80;94.00
67141;DHT22;54058;52.010;5.546;2022-12-22T09:01:46;9.80;93.90
67141;DHT22;54058;52.010;5.546;2022-12-22T09:04:17;9.70;93.90
67141;DHT22;54058;52.010;5.546;2022-12-22T09:06:43;9.70;93.90
67141;DHT22;54058;52.010;5.546;2022-12-22T09:09:10;9.60;93.90
67141;DHT22;54058;52.010;5.546;2022-12-22T09:11:37;9.60;93.90
67141;DHT22;54058;52.010;5.546;2022-12-22T09:14:03;9.50;93.90
67141;DHT22;54058;52.010;5.546;2022-12-22T09:16:30;9.50;93.90
67141;DHT22;54058;52.010;5.546;2022-12-22T09:18:56;9.40;93.80
67141;DHT22;54058;52.010;5.546;2022-12-22T09:21:22;9.40;93.90
67141;DHT22;54058;52.010;5.546;2022-12-22T09:23:48;9.30;93.80
67141;DHT22;54058;52.010;5.546;2022-12-22T09:26:18;9.40;93.90
67141;DHT22;54058;52.010;5.546;2022-12-22T09:28:44;9.30;93.90
67141;DHT22;54058;52.010;5.546;2022-12-22T09:31:10;9.30;93.90
67141;DHT22;54058;52.010;5.546;2022-12-22T09:33:36;9.30;93.90
67141;DHT22;54058;52.010;5.546;2022-12-22T09:36:10;9.30;93.90
67141;DHT22;54058;52.010;5.546;2022-12-22T09:38:37;9.30;94.00
67141;DHT22;54058;52.010;5.546;2022-12-22T09:43:51;9.40;94.00
67141;DHT22;54058;52.010;5.546;2022-12-22T09:46:26;9.50;94.00
67141;DHT22;54058;52.010;5.546;2022-12-22T09:48:52;9.50;93.90
67141;DHT22;54058;52.010;5.546;2022-12-22T09:51:19;9.50;93.90
67141;DHT22;54058;52.010;5.546;2022-12-22T09:53:48;9.50;93.90
67141;DHT22;54058;52.010;5.546;2022-12-22T09:56:16;9.40;93.80
67141;DHT22;54058;52.010;5.546;2022-12-22T09:58:43;9.50;93.90
67141;DHT22;54058;52.010;5.546;2022-12-22T10:03:54;9.40;93.90
67141;DHT22;54058;52.010;5.546;2022-12-22T10:09:25;9.50;94.00
67141;DHT22;54058;52.010;5.546;2022-12-22T10:11:53;9.60;94.10
67141;DHT22;54058;52.010;5.546;2022-12-22T10:14:20;9.70;94.20
67141;DHT22;54058;52.010;5.546;2022-12-22T10:16:46;9.70;94.00
67141;DHT22;54058;52.010;5.546;2022-12-22T10:19:13;9.70;94.00
67141;DHT22;54058;52.010;5.546;2022-12-22T10:21:40;9.70;94.10
67141;DHT22;54058;52.010;5.546;2022-12-22T10:24:27;9.70;94.00
67141;DHT22;54058;52.010;5.546;2022-12-22T10:26:57;9.70;94.00
67141;DHT22;54058;52.010;5.546;2022-12-22T10:29:25;9.80;94.10
67141;DHT22;54058;52.010;5.546;2022-12-22T10:32:11;9.80;94.10
67141;DHT22;54058;52.010;5.546;2022-12-22T10:35:00;9.90;94.00
67141;DHT22;54058;52.010;5.546;2022-12-22T10:37:34;9.90;94.10
67141;DHT22;54058;52.010;5.546;2022-12-22T10:40:20;9.90;94.10
67141;DHT22;54058;52.010;5.546;2022-12-22T10:42:54;10.00;94.10
67141;DHT22;54058;52.010;5.546;2022-12-22T10:45:23;10.00;94.10
67141;DHT22;54058;52.010;5.546;2022-12-22T10:47:53;10.10;94.10
67141;DHT22;54058;52.010;5.546;2022-12-22T10:50:20;10.10;94.10
67141;DHT22;54058;52.010;5.546;2022-12-22T10:52:51;10.00;94.10
67141;DHT22;54058;52.010;5.546;2022-12-22T10:55:24;10.10;94.20
67141;DHT22;54058;52.010;5.546;2022-12-22T10:57:50;10.10;94.20
67141;DHT22;54058;52.010;5.546;2022-12-22T11:00:37;10.10;94.00
67141;DHT22;54058;52.010;5.546;2022-12-22T11:03:04;10.10;93.80
67141;DHT22;54058;52.010;5.546;2022-12-22T11:05:31;10.10;94.00
67141;DHT22;54058;52.010;5.546;2022-12-22T11:08:16;10.10;94.00
67141;DHT22;54058;52.010;5.546;2022-12-22T11:10:44;10.10;94.00
67141;DHT22;54058;52.010;5.546;2022-12-22T11:13:22;10.10;93.90
67141;DHT22;54058;52.010;5.546;2022-12-22T11:16:02;10.10;94.10
67141;DHT22;54058;52.010;5.546;2022-12-22T11:21:51;10.20;94.00
67141;DHT22;54058;52.010;5.546;2022-12-22T11:24:24;10.20;94.00
67141;DHT22;54058;52.010;5.546;2022-12-22T11:29:55;10.30;94.00
67141;DHT22;54058;52.010;5.546;2022-12-22T11:40:43;10.40;93.70
67141;DHT22;54058;52.010;5.546;2022-12-22T11:47:13;10.50;93.60
67141;DHT22;54058;52.010;5.546;2022-12-22T11:52:10;10.50;93.50
67141;DHT22;54058;52.010;5.546;2022-12-22T11:57:16;10.50;93.60
67141;DHT22;54058;52.010;5.546;2022-12-22T12:07:47;10.50;93.50
67141;DHT22;54058;52.010;5.546;2022-12-22T12:10:26;10.50;93.40
67141;DHT22;54058;52.010;5.546;2022-12-22T12:12:54;10.50;93.40
67141;DHT22;54058;52.010;5.546;2022-12-22T12:15:33;10.50;93.40
67141;DHT22;54058;52.010;5.546;2022-12-22T12:18:21;10.50;93.40
67141;DHT22;54058;52.010;5.546;2022-12-22T12:24:16;10.50;93.40
67141;DHT22;54058;52.010;5.546;2022-12-22T12:27:12;10.50;93.50
67141;DHT22;54058;52.010;5.546;2022-12-22T12:32:57;10.50;93.50
67141;DHT22;54058;52.010;5.546;2022-12-22T12:35:45;10.60;93.40
67141;DHT22;54058;52.010;5.546;2022-12-22T12:38:24;10.50;93.30
67141;DHT22;54058;52.010;5.546;2022-12-22T12:43:35;10.50;93.50
67141;DHT22;54058;52.010;5.546;2022-12-22T12:52:07;10.50;93.20
67141;DHT22;54058;52.010;5.546;2022-12-22T12:57:29;10.40;93.50
67141;DHT22;54058;52.010;5.546;2022-12-22T12:59:57;10.40;93.40
67141;DHT22;54058;52.010;5.546;2022-12-22T13:05:17;10.40;93.30
67141;DHT22;54058;52.010;5.546;2022-12-22T13:21:06;10.10;93.10
67141;DHT22;54058;52.010;5.546;2022-12-22T13:23:34;10.10;93.20
67141;DHT22;54058;52.010;5.546;2022-12-22T13:28:41;10.20;93.30
67141;DHT22;54058;52.010;5.546;2022-12-22T13:31:24;10.10;93.00
67141;DHT22;54058;52.010;5.546;2022-12-22T13:36:48;10.00;93.10
67141;DHT22;54058;52.010;5.546;2022-12-22T13:39:15;10.10;93.20
67141;DHT22;54058;52.010;5.546;2022-12-22T13:41:44;10.10;93.00
67141;DHT22;54058;52.010;5.546;2022-12-22T13:44:17;10.20;93.00
67141;DHT22;54058;52.010;5.546;2022-12-22T13:46:43;10.10;93.00
67141;DHT22;54058;52.010;5.546;2022-12-22T13:49:15;10.10;93.00
67141;DHT22;54058;52.010;5.546;2022-12-22T13:51:41;10.10;93.00
67141;DHT22;54058;52.010;5.546;2022-12-22T13:54:31;10.10;93.30
67141;DHT22;54058;52.010;5.546;2022-12-22T13:56:59;10.20;93.00
67141;DHT22;54058;52.010;5.546;2022-12-22T14:04:33;10.10;93.00
67141;DHT22;54058;52.010;5.546;2022-12-22T14:07:28;10.10;93.10
67141;DHT22;54058;52.010;5.546;2022-12-22T14:09:55;10.20;93.00
67141;DHT22;54058;52.010;5.546;2022-12-22T14:14:53;10.20;93.30
67141;DHT22;54058;52.010;5.546;2022-12-22T14:17:23;10.20;93.00
67141;DHT22;54058;52.010;5.546;2022-12-22T14:19:51;10.20;93.00
67141;DHT22;54058;52.010;5.546;2022-12-22T14:22:22;10.20;93.00
67141;DHT22;54058;52.010;5.546;2022-12-22T14:25:07;10.30;93.00
67141;DHT22;54058;52.010;5.546;2022-12-22T14:27:47;10.20;93.00
67141;DHT22;54058;52.010;5.546;2022-12-22T14:30:29;10.30;93.00
67141;DHT22;54058;52.010;5.546;2022-12-22T14:36:17;10.30;92.90
67141;DHT22;54058;52.010;5.546;2022-12-22T14:39:08;10.30;92.90
67141;DHT22;54058;52.010;5.546;2022-12-22T14:41:45;10.30;93.10
67141;DHT22;54058;52.010;5.546;2022-12-22T14:44:27;10.30;92.90
67141;DHT22;54058;52.010;5.546;2022-12-22T14:49:50;10.30;92.90
67141;DHT22;54058;52.010;5.546;2022-12-22T14:54:53;10.20;92.80
67141;DHT22;54058;52.010;5.546;2022-12-22T14:57:37;10.20;92.80
67141;DHT22;54058;52.010;5.546;2022-12-22T15:00:26;10.30;92.90
67141;DHT22;54058;52.010;5.546;2022-12-22T15:02:55;10.30;92.80
67141;DHT22;54058;52.010;5.546;2022-12-22T15:05:27;10.20;92.80
67141;DHT22;54058;52.010;5.546;2022-12-22T15:07:56;10.30;92.80
67141;DHT22;54058;52.010;5.546;2022-12-22T15:10:24;10.20;92.80
67141;DHT22;54058;52.010;5.546;2022-12-22T15:12:54;10.20;92.80
67141;DHT22;54058;52.010;5.546;2022-12-22T15:15:21;10.20;92.80
67141;DHT22;54058;52.010;5.546;2022-12-22T15:17:49;10.20;92.80
67141;DHT22;54058;52.010;5.546;2022-12-22T15:20:24;10.20;92.80
67141;DHT22;54058;52.010;5.546;2022-12-22T15:22:51;10.20;92.80
67141;DHT22;54058;52.010;5.546;2022-12-22T15:25:22;10.20;92.80
67141;DHT22;54058;52.010;5.546;2022-12-22T15:27:48;10.20;92.70
67141;DHT22;54058;52.010;5.546;2022-12-22T15:30:17;10.20;92.80
67141;DHT22;54058;52.010;5.546;2022-12-22T15:32:43;10.10;92.70
67141;DHT22;54058;52.010;5.546;2022-12-22T15:35:23;10.10;92.80
67141;DHT22;54058;52.010;5.546;2022-12-22T15:37:49;10.10;92.70
67141;DHT22;54058;52.010;5.546;2022-12-22T15:40:20;10.10;92.80
67141;DHT22;54058;52.010;5.546;2022-12-22T15:42:46;10.10;92.80
67141;DHT22;54058;52.010;5.546;2022-12-22T15:45:13;10.10;92.80
67141;DHT22;54058;52.010;5.546;2022-12-22T15:47:40;10.00;92.80
67141;DHT22;54058;52.010;5.546;2022-12-22T15:50:16;10.00;92.70
67141;DHT22;54058;52.010;5.546;2022-12-22T15:52:50;10.00;93.00
67141;DHT22;54058;52.010;5.546;2022-12-22T15:55:18;10.00;92.80
67141;DHT22;54058;52.010;5.546;2022-12-22T15:57:44;10.00;92.80
67141;DHT22;54058;52.010;5.546;2022-12-22T16:00:12;10.00;92.80
67141;DHT22;54058;52.010;5.546;2022-12-22T16:02:38;10.00;92.80
67141;DHT22;54058;52.010;5.546;2022-12-22T16:05:05;10.00;92.80
67141;DHT22;54058;52.010;5.546;2022-12-22T16:07:31;10.00;92.80
67141;DHT22;54058;52.010;5.546;2022-12-22T16:09:58;9.90;92.80
67141;DHT22;54058;52.010;5.546;2022-12-22T16:12:24;9.90;92.90
67141;DHT22;54058;52.010;5.546;2022-12-22T16:14:53;9.90;92.90
67141;DHT22;54058;52.010;5.546;2022-12-22T16:17:25;9.90;92.90
67141;DHT22;54058;52.010;5.546;2022-12-22T16:19:50;9.90;92.90
67141;DHT22;54058;52.010;5.546;2022-12-22T16:22:51;9.80;93.00
67141;DHT22;54058;52.010;5.546;2022-12-22T16:25:15;9.80;93.00
67141;DHT22;54058;52.010;5.546;2022-12-22T16:27:43;9.80;93.00
67141;DHT22;54058;52.010;5.546;2022-12-22T16:30:22;9.80;93.00
67141;DHT22;54058;52.010;5.546;2022-12-22T16:32:48;9.80;93.00
67141;DHT22;54058;52.010;5.546;2022-12-22T16:35:20;9.80;93.10
67141;DHT22;54058;52.010;5.546;2022-12-22T16:37:46;9.80;93.00
67141;DHT22;54058;52.010;5.546;2022-12-22T16:40:16;9.70;93.00
67141;DHT22;54058;52.010;5.546;2022-12-22T16:42:57;9.80;93.10
67141;DHT22;54058;52.010;5.546;2022-12-22T16:45:28;9.70;93.10
67141;DHT22;54058;52.010;5.546;2022-12-22T16:47:57;9.70;93.10
67141;DHT22;54058;52.010;5.546;2022-12-22T16:50:26;9.70;93.10
67141;DHT22;54058;52.010;5.546;2022-12-22T16:52:59;9.70;93.20
67141;DHT22;54058;52.010;5.546;2022-12-22T16:55:26;9.70;93.10
67141;DHT22;54058;52.010;5.546;2022-12-22T16:57:51;9.70;93.20
67141;DHT22;54058;52.010;5.546;2022-12-22T17:00:20;9.70;93.40
67141;DHT22;54058;52.010;5.546;2022-12-22T17:03:15;9.60;93.20
67141;DHT22;54058;52.010;5.546;2022-12-22T17:05:54;9.60;93.20
67141;DHT22;54058;52.010;5.546;2022-12-22T17:08:30;9.60;93.30
67141;DHT22;54058;52.010;5.546;2022-12-22T17:10:58;9.60;93.30
67141;DHT22;54058;52.010;5.546;2022-12-22T17:13:25;9.60;93.20
67141;DHT22;54058;52.010;5.546;2022-12-22T17:15:51;9.60;93.20
67141;DHT22;54058;52.010;5.546;2022-12-22T17:18:24;9.60;93.20
67141;DHT22;54058;52.010;5.546;2022-12-22T17:20:54;9.60;93.20
67141;DHT22;54058;52.010;5.546;2022-12-22T17:23:42;9.60;93.20
67141;DHT22;54058;52.010;5.546;2022-12-22T17:26:14;9.60;93.20
67141;DHT22;54058;52.010;5.546;2022-12-22T17:28:41;9.60;93.20
67141;DHT22;54058;52.010;5.546;2022-12-22T17:31:13;9.60;93.20
67141;DHT22;54058;52.010;5.546;2022-12-22T17:33:39;9.70;93.30
67141;DHT22;54058;52.010;5.546;2022-12-22T17:36:05;9.70;93.30
67141;DHT22;54058;52.010;5.546;2022-12-22T17:38:32;9.70;93.30
67141;DHT22;54058;52.010;5.546;2022-12-22T17:40:58;9.70;93.30
67141;DHT22;54058;52.010;5.546;2022-12-22T17:43:25;9.70;93.30
67141;DHT22;54058;52.010;5.546;2022-12-22T17:45:50;9.70;93.30
67141;DHT22;54058;52.010;5.546;2022-12-22T17:48:17;9.70;93.30
67141;DHT22;54058;52.010;5.546;2022-12-22T17:50:44;9.70;93.30
67141;DHT22;54058;52.010;5.546;2022-12-22T17:53:17;9.70;93.30
67141;DHT22;54058;52.010;5.546;2022-12-22T17:55:44;9.70;93.30
67141;DHT22;54058;52.010;5.546;2022-12-22T17:58:15;9.70;93.30
67141;DHT22;54058;52.010;5.546;2022-12-22T18:00:41;9.80;93.30
67141;DHT22;54058;52.010;5.546;2022-12-22T18:03:11;9.80;93.30
67141;DHT22;54058;52.010;5.546;2022-12-22T18:05:43;9.80;93.30